Orsola Bottiglieri — ICQN — position and weather

sailwx.info

Track history (hours):
 
Tides and Currents Weather Stations Pressure Air Temp Water Temp Dewpoint Dewpoint Depression Visibility Wind Speed Wind Dir Waves Ship Positions

Orsola Bottiglieri

Last reported at 2014-Aug-12 21:33 UTC. Time now 2014-Aug-31 10:37 UTC.
Position N 31°05' E 032°19'.
Warning: this ship's position is 18 days out of date.

Length 292 m; draft 18.6 m.

Type: Cargo ship. MMSI: 247304400.

Date/timePositionNaut miles runAvg speedWind from/ knotsBaromVisibWave heightAir tempDewpointWater temp
2014-Aug-12 21:33N 31°05' E 032°19'7 7.4
2014-Aug-12 20:33N 31°12' E 032°20'8 8.3
2014-Aug-12 19:33N 31°20' E 032°23'7 6.7
2014-Aug-12 18:33N 31°27' E 032°22'3 2.7
2014-Aug-12 17:29N 31°28' E 032°19'0 0.1
2014-Aug-12 16:33N 31°28' E 032°19'0 0.0
2014-Aug-12 15:32N 31°28' E 032°19'2 0.4
2014-Aug-12 09:26N 31°29' E 032°17'6 6.7
2014-Aug-12 08:33N 31°32' E 032°11'9 8.7
2014-Aug-12 07:30N 31°39' E 032°04'9 8.9
2014-Aug-12 06:32N 31°45' E 031°57'9 9.1
2014-Aug-12 05:34N 31°50' E 031°48'9 9.1
2014-Aug-12 04:33N 31°55' E 031°39'9 9.0
2014-Aug-12 03:33N 32°00' E 031°30'9 9.4
2014-Aug-12 02:34N 32°07' E 031°23'9 8.9
2014-Aug-12 01:33N 32°14' E 031°16'8 8.4
2014-Aug-12 00:33N 32°20' E 031°09'8 8.4
2014-Aug-11 23:34N 32°26' E 031°03'9 8.5
2014-Aug-11 22:34N 32°33' E 030°56'9 8.6
2014-Aug-11 21:33N 32°39' E 030°49'9 8.5
2014-Aug-11 20:33N 32°45' E 030°42'8 8.3
2014-Aug-11 19:34N 32°51' E 030°36'9 8.5
2014-Aug-11 18:34N 32°58' E 030°29'9 8.7
2014-Aug-11 17:33N 33°04' E 030°22'9 8.9
2014-Aug-11 16:33N 33°11' E 030°15'9 9.0
2014-Aug-11 15:33N 33°18' E 030°08'9 9.3
2014-Aug-11 14:34N 33°25' E 030°00'10 9.6
2014-Aug-11 13:34N 33°32' E 029°53'9 9.5
2014-Aug-11 12:34N 33°39' E 029°45'9 9.3
2014-Aug-11 11:33N 33°46' E 029°38'11 9.4
2014-Aug-11 10:22N 33°54' E 029°29'1012.0
2014-Aug-11 09:29N 34°02' E 029°20'1311.8
2014-Aug-11 08:21N 34°12' E 029°10'165 8.1
2014-Aug-10 12:04N 36°16' E 026°56'30 8.5
2014-Aug-10 08:33N 36°38' E 026°31'9 8.6
2014-Aug-10 07:33N 36°45' E 026°24'10 8.9
2014-Aug-10 06:26N 36°52' E 026°16'1011.6
2014-Aug-10 05:32N 37°01' E 026°09'9 9.4
2014-Aug-10 04:33N 37°10' E 026°05'8 8.3
2014-Aug-10 03:33N 37°17' E 026°00'9 9.3
2014-Aug-10 02:33N 37°25' E 025°55'10 9.1
2014-Aug-10 01:29N 37°34' E 025°50'12 8.5
2014-Aug-10 00:08N 37°45' E 025°45'5 8.7
2014-Aug-09 23:33N 37°50' E 025°42'9 8.7
2014-Aug-09 22:33N 37°58' E 025°38'9 8.8
2014-Aug-09 21:33N 38°06' E 025°34'9 8.9
2014-Aug-09 20:33N 38°14' E 025°30'9 8.7
2014-Aug-09 19:33N 38°22' E 025°26'9 8.6
2014-Aug-09 18:33N 38°31' E 025°23'9 8.9
2014-Aug-09 17:33N 38°39' E 025°25'9 8.7
2014-Aug-09 16:33N 38°48' E 025°28'13 8.7
2014-Aug-09 15:03N 39°00' E 025°31'4 8.8
2014-Aug-09 14:33N 39°05' E 025°32'9 8.9
2014-Aug-09 13:31N 39°14' E 025°36'8 8.8
2014-Aug-09 12:33N 39°22' E 025°38'165 5.6
2014-Aug-08 07:19N 40°53' E 028°37'8 9.9
2014-Aug-08 06:33N 40°54' E 028°47'325 6.7
2014-Aug-06 06:21N 46°02' E 031°08'9 7.7
2014-Aug-06 05:12N 46°09' E 031°00'5 8.1
2014-Aug-06 04:33N 46°13' E 030°55'24 1.0
2014-Aug-05 04:33N 46°37' E 031°02'  
Track history (hours):
 
Tides and Currents Weather Stations Pressure Air Temp Water Temp Dewpoint Dewpoint Depression Visibility Wind Speed Wind Dir Waves Ship Positions

Orsola Bottiglieri

Last reported at 2014-Aug-12 21:33 UTC. Time now 2014-Aug-31 10:37 UTC.
Position N 31°05' E 032°19'.
Warning: this ship's position is 18 days out of date.

Length 292 m; draft 18.6 m.

Type: Cargo ship. MMSI: 247304400.

Date/timePositionNaut miles runAvg speedWind from/ knotsBaromVisibWave heightAir tempDewpointWater temp
2014-Aug-12 21:33N 31°05' E 032°19'7 7.4
2014-Aug-12 20:33N 31°12' E 032°20'8 8.3
2014-Aug-12 19:33N 31°20' E 032°23'7 6.7
2014-Aug-12 18:33N 31°27' E 032°22'3 2.7
2014-Aug-12 17:29N 31°28' E 032°19'0 0.1
2014-Aug-12 16:33N 31°28' E 032°19'0 0.0
2014-Aug-12 15:32N 31°28' E 032°19'2 0.4
2014-Aug-12 09:26N 31°29' E 032°17'6 6.7
2014-Aug-12 08:33N 31°32' E 032°11'9 8.7
2014-Aug-12 07:30N 31°39' E 032°04'9 8.9
2014-Aug-12 06:32N 31°45' E 031°57'9 9.1
2014-Aug-12 05:34N 31°50' E 031°48'9 9.1
2014-Aug-12 04:33N 31°55' E 031°39'9 9.0
2014-Aug-12 03:33N 32°00' E 031°30'9 9.4
2014-Aug-12 02:34N 32°07' E 031°23'9 8.9
2014-Aug-12 01:33N 32°14' E 031°16'8 8.4
2014-Aug-12 00:33N 32°20' E 031°09'8 8.4
2014-Aug-11 23:34N 32°26' E 031°03'9 8.5
2014-Aug-11 22:34N 32°33' E 030°56'9 8.6
2014-Aug-11 21:33N 32°39' E 030°49'9 8.5
2014-Aug-11 20:33N 32°45' E 030°42'8 8.3
2014-Aug-11 19:34N 32°51' E 030°36'9 8.5
2014-Aug-11 18:34N 32°58' E 030°29'9 8.7
2014-Aug-11 17:33N 33°04' E 030°22'9 8.9
2014-Aug-11 16:33N 33°11' E 030°15'9 9.0
2014-Aug-11 15:33N 33°18' E 030°08'9 9.3
2014-Aug-11 14:34N 33°25' E 030°00'10 9.6
2014-Aug-11 13:34N 33°32' E 029°53'9 9.5
2014-Aug-11 12:34N 33°39' E 029°45'9 9.3
2014-Aug-11 11:33N 33°46' E 029°38'11 9.4
2014-Aug-11 10:22N 33°54' E 029°29'1012.0
2014-Aug-11 09:29N 34°02' E 029°20'1311.8
2014-Aug-11 08:21N 34°12' E 029°10'165 8.1
2014-Aug-10 12:04N 36°16' E 026°56'30 8.5
2014-Aug-10 08:33N 36°38' E 026°31'9 8.6
2014-Aug-10 07:33N 36°45' E 026°24'10 8.9
2014-Aug-10 06:26N 36°52' E 026°16'1011.6
2014-Aug-10 05:32N 37°01' E 026°09'9 9.4
2014-Aug-10 04:33N 37°10' E 026°05'8 8.3
2014-Aug-10 03:33N 37°17' E 026°00'9 9.3
2014-Aug-10 02:33N 37°25' E 025°55'10 9.1
2014-Aug-10 01:29N 37°34' E 025°50'12 8.5
2014-Aug-10 00:08N 37°45' E 025°45'5 8.7
2014-Aug-09 23:33N 37°50' E 025°42'9 8.7
2014-Aug-09 22:33N 37°58' E 025°38'9 8.8
2014-Aug-09 21:33N 38°06' E 025°34'9 8.9
2014-Aug-09 20:33N 38°14' E 025°30'9 8.7
2014-Aug-09 19:33N 38°22' E 025°26'9 8.6
2014-Aug-09 18:33N 38°31' E 025°23'9 8.9
2014-Aug-09 17:33N 38°39' E 025°25'9 8.7
2014-Aug-09 16:33N 38°48' E 025°28'13 8.7
2014-Aug-09 15:03N 39°00' E 025°31'4 8.8
2014-Aug-09 14:33N 39°05' E 025°32'9 8.9
2014-Aug-09 13:31N 39°14' E 025°36'8 8.8
2014-Aug-09 12:33N 39°22' E 025°38'165 5.6
2014-Aug-08 07:19N 40°53' E 028°37'8 9.9
2014-Aug-08 06:33N 40°54' E 028°47'325 6.7
2014-Aug-06 06:21N 46°02' E 031°08'9 7.7
2014-Aug-06 05:12N 46°09' E 031°00'5 8.1
2014-Aug-06 04:33N 46°13' E 030°55'24 1.0
2014-Aug-05 04:33N 46°37' E 031°02'  

Dump ship's entire track history